sensor_id;sensor_type;location;lat;lon;timestamp;temperature;humidity
31979;DHT22;18502;43.574;1.276;2023-02-01T06:26:47;6.90;91.20
31979;DHT22;18502;43.574;1.276;2023-02-01T06:29:13;6.90;91.40
31979;DHT22;18502;43.574;1.276;2023-02-01T06:31:39;7.00;92.00
31979;DHT22;18502;43.574;1.276;2023-02-01T06:34:05;7.00;91.80
31979;DHT22;18502;43.574;1.276;2023-02-01T06:36:31;7.00;91.90
31979;DHT22;18502;43.574;1.276;2023-02-01T06:38:57;7.00;91.80
31979;DHT22;18502;43.574;1.276;2023-02-01T06:41:24;7.00;91.90
31979;DHT22;18502;43.574;1.276;2023-02-01T06:43:51;7.00;92.00
31979;DHT22;18502;43.574;1.276;2023-02-01T06:46:17;6.90;92.80
31979;DHT22;18502;43.574;1.276;2023-02-01T06:48:43;6.80;93.70
31979;DHT22;18502;43.574;1.276;2023-02-01T06:51:23;6.80;94.20
31979;DHT22;18502;43.574;1.276;2023-02-01T06:53:49;6.90;94.20
31979;DHT22;18502;43.574;1.276;2023-02-01T06:56:15;6.90;94.30
31979;DHT22;18502;43.574;1.276;2023-02-01T06:58:41;6.90;94.30
31979;DHT22;18502;43.574;1.276;2023-02-01T07:01:08;6.90;94.30
31979;DHT22;18502;43.574;1.276;2023-02-01T07:03:34;6.90;94.20
31979;DHT22;18502;43.574;1.276;2023-02-01T07:06:00;6.90;94.20
31979;DHT22;18502;43.574;1.276;2023-02-01T07:08:30;6.90;94.20
31979;DHT22;18502;43.574;1.276;2023-02-01T07:10:56;7.00;94.10
31979;DHT22;18502;43.574;1.276;2023-02-01T07:13:22;7.00;94.10
31979;DHT22;18502;43.574;1.276;2023-02-01T07:15:47;7.00;94.20
31979;DHT22;18502;43.574;1.276;2023-02-01T07:18:14;7.00;94.20
31979;DHT22;18502;43.574;1.276;2023-02-01T07:20:40;7.00;94.20
31979;DHT22;18502;43.574;1.276;2023-02-01T07:23:07;7.00;94.10
31979;DHT22;18502;43.574;1.276;2023-02-01T07:25:34;7.00;94.00
31979;DHT22;18502;43.574;1.276;2023-02-01T07:28:00;7.00;94.00
31979;DHT22;18502;43.574;1.276;2023-02-01T07:30:26;7.00;93.90
31979;DHT22;18502;43.574;1.276;2023-02-01T07:32:51;7.00;93.90
31979;DHT22;18502;43.574;1.276;2023-02-01T07:35:17;7.00;94.00
31979;DHT22;18502;43.574;1.276;2023-02-01T07:37:43;7.00;94.00
31979;DHT22;18502;43.574;1.276;2023-02-01T07:40:09;7.00;94.10
31979;DHT22;18502;43.574;1.276;2023-02-01T07:42:35;7.00;94.10
31979;DHT22;18502;43.574;1.276;2023-02-01T07:45:01;7.00;94.20
31979;DHT22;18502;43.574;1.276;2023-02-01T07:47:27;7.00;94.00
31979;DHT22;18502;43.574;1.276;2023-02-01T07:49:53;7.10;94.10
31979;DHT22;18502;43.574;1.276;2023-02-01T07:52:19;7.10;94.00
31979;DHT22;18502;43.574;1.276;2023-02-01T07:54:45;7.10;94.10
31979;DHT22;18502;43.574;1.276;2023-02-01T07:57:10;7.10;93.90
31979;DHT22;18502;43.574;1.276;2023-02-01T07:59:37;7.20;93.90
31979;DHT22;18502;43.574;1.276;2023-02-01T08:02:26;7.20;94.00
31979;DHT22;18502;43.574;1.276;2023-02-01T08:04:51;7.30;93.80
31979;DHT22;18502;43.574;1.276;2023-02-01T08:07:17;7.40;93.60
31979;DHT22;18502;43.574;1.276;2023-02-01T08:09:43;7.50;93.40
31979;DHT22;18502;43.574;1.276;2023-02-01T08:12:08;7.70;93.00
31979;DHT22;18502;43.574;1.276;2023-02-01T08:14:34;7.70;92.80
31979;DHT22;18502;43.574;1.276;2023-02-01T08:17:00;7.50;93.10
31979;DHT22;18502;43.574;1.276;2023-02-01T08:19:25;7.40;93.20
31979;DHT22;18502;43.574;1.276;2023-02-01T08:21:51;7.40;93.40
31979;DHT22;18502;43.574;1.276;2023-02-01T08:24:16;7.30;92.70
31979;DHT22;18502;43.574;1.276;2023-02-01T08:26:42;7.30;92.80
31979;DHT22;18502;43.574;1.276;2023-02-01T08:29:09;7.30;92.60
31979;DHT22;18502;43.574;1.276;2023-02-01T08:31:37;7.40;92.30
31979;DHT22;18502;43.574;1.276;2023-02-01T08:34:06;7.60;91.80
31979;DHT22;18502;43.574;1.276;2023-02-01T08:36:34;7.70;91.50
31979;DHT22;18502;43.574;1.276;2023-02-01T08:39:00;7.60;91.70
31979;DHT22;18502;43.574;1.276;2023-02-01T08:41:28;7.60;91.90
31979;DHT22;18502;43.574;1.276;2023-02-01T08:43:55;7.50;92.00
31979;DHT22;18502;43.574;1.276;2023-02-01T08:46:21;7.50;91.80
31979;DHT22;18502;43.574;1.276;2023-02-01T08:48:48;7.60;91.90
31979;DHT22;18502;43.574;1.276;2023-02-01T08:51:15;7.80;91.60
31979;DHT22;18502;43.574;1.276;2023-02-01T08:53:41;7.70;91.70
31979;DHT22;18502;43.574;1.276;2023-02-01T08:56:09;7.90;91.20
31979;DHT22;18502;43.574;1.276;2023-02-01T08:58:35;7.90;91.00
31979;DHT22;18502;43.574;1.276;2023-02-01T09:01:09;8.00;91.00
31979;DHT22;18502;43.574;1.276;2023-02-01T09:03:36;7.90;91.00
31979;DHT22;18502;43.574;1.276;2023-02-01T09:06:08;8.10;90.70
31979;DHT22;18502;43.574;1.276;2023-02-01T09:08:34;8.10;90.60
31979;DHT22;18502;43.574;1.276;2023-02-01T09:11:06;8.30;89.00
31979;DHT22;18502;43.574;1.276;2023-02-01T09:13:32;8.10;87.80
31979;DHT22;18502;43.574;1.276;2023-02-01T09:15:59;8.20;86.40
31979;DHT22;18502;43.574;1.276;2023-02-01T09:18:25;8.10;85.90
31979;DHT22;18502;43.574;1.276;2023-02-01T09:20:51;8.50;83.20
31979;DHT22;18502;43.574;1.276;2023-02-01T09:23:17;9.50;75.90
31979;DHT22;18502;43.574;1.276;2023-02-01T09:25:43;10.60;68.70
31979;DHT22;18502;43.574;1.276;2023-02-01T09:28:08;12.10;61.80
31979;DHT22;18502;43.574;1.276;2023-02-01T09:30:36;12.00;59.50
31979;DHT22;18502;43.574;1.276;2023-02-01T09:33:02;12.30;56.90
31979;DHT22;18502;43.574;1.276;2023-02-01T09:35:28;14.30;54.00
31979;DHT22;18502;43.574;1.276;2023-02-01T09:37:54;14.40;51.10
31979;DHT22;18502;43.574;1.276;2023-02-01T09:40:20;15.50;50.70
31979;DHT22;18502;43.574;1.276;2023-02-01T09:48:17;10.80;60.60
31979;DHT22;18502;43.574;1.276;2023-02-01T09:50:52;11.10;60.60
31979;DHT22;18502;43.574;1.276;2023-02-01T09:56:10;9.40;65.60
31979;DHT22;18502;43.574;1.276;2023-02-01T09:58:38;9.70;65.20
31979;DHT22;18502;43.574;1.276;2023-02-01T10:01:13;9.70;65.20
31979;DHT22;18502;43.574;1.276;2023-02-01T10:03:40;9.80;65.80
31979;DHT22;18502;43.574;1.276;2023-02-01T10:06:27;9.70;66.40
31979;DHT22;18502;43.574;1.276;2023-02-01T10:09:32;9.60;66.60
31979;DHT22;18502;43.574;1.276;2023-02-01T10:12:42;9.60;67.30
31979;DHT22;18502;43.574;1.276;2023-02-01T10:26:23;11.80;61.90
31979;DHT22;18502;43.574;1.276;2023-02-01T10:28:56;11.60;61.60
31979;DHT22;18502;43.574;1.276;2023-02-01T10:31:28;11.60;62.20
31979;DHT22;18502;43.574;1.276;2023-02-01T10:34:01;11.70;62.20
31979;DHT22;18502;43.574;1.276;2023-02-01T10:36:40;12.10;61.40
31979;DHT22;18502;43.574;1.276;2023-02-01T10:39:11;11.30;62.70
31979;DHT22;18502;43.574;1.276;2023-02-01T10:41:40;10.80;64.70
31979;DHT22;18502;43.574;1.276;2023-02-01T10:44:27;12.50;61.40
31979;DHT22;18502;43.574;1.276;2023-02-01T10:46:54;14.00;57.70
31979;DHT22;18502;43.574;1.276;2023-02-01T10:49:39;15.30;54.10
31979;DHT22;18502;43.574;1.276;2023-02-01T10:52:17;15.60;54.40
31979;DHT22;18502;43.574;1.276;2023-02-01T10:54:45;17.80;48.00
31979;DHT22;18502;43.574;1.276;2023-02-01T10:59:46;14.20;54.90
31979;DHT22;18502;43.574;1.276;2023-02-01T11:02:30;13.30;56.90
31979;DHT22;18502;43.574;1.276;2023-02-01T11:05:10;12.50;59.20
31979;DHT22;18502;43.574;1.276;2023-02-01T11:07:38;12.80;59.90
31979;DHT22;18502;43.574;1.276;2023-02-01T11:10:05;13.20;58.20
31979;DHT22;18502;43.574;1.276;2023-02-01T11:12:34;14.00;57.50
31979;DHT22;18502;43.574;1.276;2023-02-01T11:15:20;14.10;54.90
31979;DHT22;18502;43.574;1.276;2023-02-01T11:17:48;13.00;57.80
31979;DHT22;18502;43.574;1.276;2023-02-01T11:22:59;14.10;55.80
31979;DHT22;18502;43.574;1.276;2023-02-01T11:25:25;14.80;55.20
31979;DHT22;18502;43.574;1.276;2023-02-01T11:27:53;15.20;52.30
31979;DHT22;18502;43.574;1.276;2023-02-01T11:30:39;14.60;53.50
31979;DHT22;18502;43.574;1.276;2023-02-01T11:33:09;13.80;58.10
31979;DHT22;18502;43.574;1.276;2023-02-01T11:35:38;13.50;55.90
31979;DHT22;18502;43.574;1.276;2023-02-01T11:38:15;11.80;61.80
31979;DHT22;18502;43.574;1.276;2023-02-01T11:40:43;11.40;65.00
31979;DHT22;18502;43.574;1.276;2023-02-01T11:43:26;11.20;67.20
31979;DHT22;18502;43.574;1.276;2023-02-01T11:46:19;11.00;67.30
31979;DHT22;18502;43.574;1.276;2023-02-01T11:48:51;11.20;66.00
31979;DHT22;18502;43.574;1.276;2023-02-01T12:03:26;11.90;62.60
31979;DHT22;18502;43.574;1.276;2023-02-01T12:06:36;12.10;62.90
31979;DHT22;18502;43.574;1.276;2023-02-01T12:28:42;14.70;54.80
31979;DHT22;18502;43.574;1.276;2023-02-01T12:39:45;16.70;49.70
31979;DHT22;18502;43.574;1.276;2023-02-01T12:48:11;15.70;49.00
31979;DHT22;18502;43.574;1.276;2023-02-01T12:50:59;14.40;52.90
31979;DHT22;18502;43.574;1.276;2023-02-01T12:56:14;14.60;53.20
31979;DHT22;18502;43.574;1.276;2023-02-01T12:58:50;14.20;52.80
31979;DHT22;18502;43.574;1.276;2023-02-01T13:01:28;13.50;55.80
31979;DHT22;18502;43.574;1.276;2023-02-01T13:04:42;12.90;56.50
31979;DHT22;18502;43.574;1.276;2023-02-01T13:11:59;12.20;58.90
31979;DHT22;18502;43.574;1.276;2023-02-01T13:14:52;11.90;59.20
31979;DHT22;18502;43.574;1.276;2023-02-01T13:17:22;11.90;59.70
31979;DHT22;18502;43.574;1.276;2023-02-01T13:19:57;11.70;59.70
31979;DHT22;18502;43.574;1.276;2023-02-01T13:22:39;11.60;59.00
31979;DHT22;18502;43.574;1.276;2023-02-01T13:27:49;11.60;58.90
31979;DHT22;18502;43.574;1.276;2023-02-01T13:30:26;11.80;58.30
31979;DHT22;18502;43.574;1.276;2023-02-01T13:35:37;11.90;57.10
31979;DHT22;18502;43.574;1.276;2023-02-01T13:41:02;11.60;58.00
31979;DHT22;18502;43.574;1.276;2023-02-01T13:43:31;11.70;58.30
31979;DHT22;18502;43.574;1.276;2023-02-01T13:46:05;11.70;57.70
31979;DHT22;18502;43.574;1.276;2023-02-01T13:49:01;11.50;58.20
31979;DHT22;18502;43.574;1.276;2023-02-01T13:54:05;11.30;58.60
31979;DHT22;18502;43.574;1.276;2023-02-01T13:56:40;11.20;59.00
31979;DHT22;18502;43.574;1.276;2023-02-01T14:10:57;10.90;59.40
31979;DHT22;18502;43.574;1.276;2023-02-01T14:13:30;10.90;58.90
31979;DHT22;18502;43.574;1.276;2023-02-01T14:23:44;11.00;59.30
31979;DHT22;18502;43.574;1.276;2023-02-01T14:26:16;11.00;59.10
31979;DHT22;18502;43.574;1.276;2023-02-01T14:28:46;10.90;59.80
31979;DHT22;18502;43.574;1.276;2023-02-01T14:31:33;10.80;60.00
31979;DHT22;18502;43.574;1.276;2023-02-01T14:34:05;10.70;60.00
31979;DHT22;18502;43.574;1.276;2023-02-01T14:36:47;10.60;60.10
31979;DHT22;18502;43.574;1.276;2023-02-01T14:42:26;10.50;60.10
31979;DHT22;18502;43.574;1.276;2023-02-01T14:47:38;10.50;60.60
31979;DHT22;18502;43.574;1.276;2023-02-01T14:57:58;10.60;61.00
31979;DHT22;18502;43.574;1.276;2023-02-01T15:00:29;10.80;60.70
31979;DHT22;18502;43.574;1.276;2023-02-01T15:03:15;10.80;59.80
31979;DHT22;18502;43.574;1.276;2023-02-01T15:05:42;10.80;59.70
31979;DHT22;18502;43.574;1.276;2023-02-01T15:08:16;10.60;59.10
31979;DHT22;18502;43.574;1.276;2023-02-01T15:10:47;10.50;60.60
31979;DHT22;18502;43.574;1.276;2023-02-01T15:13:22;10.60;59.10
31979;DHT22;18502;43.574;1.276;2023-02-01T15:16:11;10.50;58.80
31979;DHT22;18502;43.574;1.276;2023-02-01T15:18:38;10.30;59.40
31979;DHT22;18502;43.574;1.276;2023-02-01T15:21:05;10.40;60.80
31979;DHT22;18502;43.574;1.276;2023-02-01T15:23:32;10.40;60.70
31979;DHT22;18502;43.574;1.276;2023-02-01T15:25:58;10.30;60.10
31979;DHT22;18502;43.574;1.276;2023-02-01T15:28:25;10.30;60.30
31979;DHT22;18502;43.574;1.276;2023-02-01T15:31:00;10.30;59.50
31979;DHT22;18502;43.574;1.276;2023-02-01T15:33:27;10.30;59.50
31979;DHT22;18502;43.574;1.276;2023-02-01T15:38:41;10.10;59.70
31979;DHT22;18502;43.574;1.276;2023-02-01T15:41:16;10.00;60.80
31979;DHT22;18502;43.574;1.276;2023-02-01T15:46:24;9.90;60.00
31979;DHT22;18502;43.574;1.276;2023-02-01T15:48:54;9.90;61.10
31979;DHT22;18502;43.574;1.276;2023-02-01T15:51:22;9.90;61.20
31979;DHT22;18502;43.574;1.276;2023-02-01T15:53:58;9.80;60.90
31979;DHT22;18502;43.574;1.276;2023-02-01T15:56:27;9.60;60.50
31979;DHT22;18502;43.574;1.276;2023-02-01T15:58:56;9.40;60.90
31979;DHT22;18502;43.574;1.276;2023-02-01T16:01:22;9.50;61.80
31979;DHT22;18502;43.574;1.276;2023-02-01T16:03:48;9.50;61.40
31979;DHT22;18502;43.574;1.276;2023-02-01T16:11:33;9.20;61.70
31979;DHT22;18502;43.574;1.276;2023-02-01T16:14:05;9.30;62.30
31979;DHT22;18502;43.574;1.276;2023-02-01T16:16:30;9.20;63.10
31979;DHT22;18502;43.574;1.276;2023-02-01T16:18:56;9.10;62.20
31979;DHT22;18502;43.574;1.276;2023-02-01T16:21:22;9.00;62.90
31979;DHT22;18502;43.574;1.276;2023-02-01T16:23:49;9.00;61.80
31979;DHT22;18502;43.574;1.276;2023-02-01T16:26:16;8.90;62.90
31979;DHT22;18502;43.574;1.276;2023-02-01T16:28:41;8.90;62.90
31979;DHT22;18502;43.574;1.276;2023-02-01T16:31:15;8.90;63.40
31979;DHT22;18502;43.574;1.276;2023-02-01T16:33:49;9.00;63.30
31979;DHT22;18502;43.574;1.276;2023-02-01T16:36:16;8.90;63.70
31979;DHT22;18502;43.574;1.276;2023-02-01T16:38:42;9.10;62.90
31979;DHT22;18502;43.574;1.276;2023-02-01T16:41:13;9.30;62.90
31979;DHT22;18502;43.574;1.276;2023-02-01T16:43:40;9.20;62.90
31979;DHT22;18502;43.574;1.276;2023-02-01T16:46:08;9.20;62.80
31979;DHT22;18502;43.574;1.276;2023-02-01T16:48:40;9.20;62.70
31979;DHT22;18502;43.574;1.276;2023-02-01T16:51:13;9.10;62.00
31979;DHT22;18502;43.574;1.276;2023-02-01T16:53:41;9.10;63.00
31979;DHT22;18502;43.574;1.276;2023-02-01T16:56:33;9.00;63.20
31979;DHT22;18502;43.574;1.276;2023-02-01T16:59:01;8.90;64.20
31979;DHT22;18502;43.574;1.276;2023-02-01T17:01:27;8.70;64.00
31979;DHT22;18502;43.574;1.276;2023-02-01T17:03:53;8.60;64.00
31979;DHT22;18502;43.574;1.276;2023-02-01T17:06:21;8.40;64.40
31979;DHT22;18502;43.574;1.276;2023-02-01T17:08:59;8.20;65.90
31979;DHT22;18502;43.574;1.276;2023-02-01T17:11:26;8.00;65.60
31979;DHT22;18502;43.574;1.276;2023-02-01T17:13:52;7.60;66.90
31979;DHT22;18502;43.574;1.276;2023-02-01T17:18:46;7.30;67.80
31979;DHT22;18502;43.574;1.276;2023-02-01T17:21:12;7.10;68.70
31979;DHT22;18502;43.574;1.276;2023-02-01T17:23:38;7.00;68.80
31979;DHT22;18502;43.574;1.276;2023-02-01T17:26:04;6.80;69.80
31979;DHT22;18502;43.574;1.276;2023-02-01T17:28:30;6.60;70.40
31979;DHT22;18502;43.574;1.276;2023-02-01T17:30:56;6.40;71.20
31979;DHT22;18502;43.574;1.276;2023-02-01T17:33:27;6.30;72.60
31979;DHT22;18502;43.574;1.276;2023-02-01T17:35:55;6.10;73.70
31979;DHT22;18502;43.574;1.276;2023-02-01T17:38:22;5.80;75.00
31979;DHT22;18502;43.574;1.276;2023-02-01T17:40:48;5.70;75.40
31979;DHT22;18502;43.574;1.276;2023-02-01T17:43:24;5.60;75.70
31979;DHT22;18502;43.574;1.276;2023-02-01T17:46:14;5.50;76.90
31979;DHT22;18502;43.574;1.276;2023-02-01T17:48:41;5.30;77.90
31979;DHT22;18502;43.574;1.276;2023-02-01T17:51:16;5.30;78.30
31979;DHT22;18502;43.574;1.276;2023-02-01T17:53:42;5.20;79.50
31979;DHT22;18502;43.574;1.276;2023-02-01T17:56:13;5.10;79.90
31979;DHT22;18502;43.574;1.276;2023-02-01T17:58:39;5.10;79.80
31979;DHT22;18502;43.574;1.276;2023-02-01T18:01:05;5.10;79.90
31979;DHT22;18502;43.574;1.276;2023-02-01T18:03:31;5.00;80.10
31979;DHT22;18502;43.574;1.276;2023-02-01T18:06:00;4.80;81.40
31979;DHT22;18502;43.574;1.276;2023-02-01T18:08:30;4.70;81.90
31979;DHT22;18502;43.574;1.276;2023-02-01T18:11:00;4.60;82.10
31979;DHT22;18502;43.574;1.276;2023-02-01T18:13:27;4.60;83.00
31979;DHT22;18502;43.574;1.276;2023-02-01T18:15:54;4.50;83.90
31979;DHT22;18502;43.574;1.276;2023-02-01T18:18:20;4.40;84.20
31979;DHT22;18502;43.574;1.276;2023-02-01T18:20:47;4.40;84.10
31979;DHT22;18502;43.574;1.276;2023-02-01T18:23:23;4.40;84.20
31979;DHT22;18502;43.574;1.276;2023-02-01T18:25:50;4.70;83.90
31979;DHT22;18502;43.574;1.276;2023-02-01T18:28:17;4.70;83.40
31979;DHT22;18502;43.574;1.276;2023-02-01T18:30:45;5.00;82.30
31979;DHT22;18502;43.574;1.276;2023-02-01T18:33:14;5.00;81.90
31979;DHT22;18502;43.574;1.276;2023-02-01T18:35:40;4.80;82.10
31979;DHT22;18502;43.574;1.276;2023-02-01T18:38:06;4.80;82.80
31979;DHT22;18502;43.574;1.276;2023-02-01T18:40:35;4.70;82.80
31979;DHT22;18502;43.574;1.276;2023-02-01T18:43:01;4.80;82.70
31979;DHT22;18502;43.574;1.276;2023-02-01T18:45:36;4.80;82.40
31979;DHT22;18502;43.574;1.276;2023-02-01T18:48:03;4.90;82.10
31979;DHT22;18502;43.574;1.276;2023-02-01T18:50:31;5.00;81.60
31979;DHT22;18502;43.574;1.276;2023-02-01T18:53:00;5.00;81.60
31979;DHT22;18502;43.574;1.276;2023-02-01T18:55:27;5.00;81.40
31979;DHT22;18502;43.574;1.276;2023-02-01T18:57:53;5.10;81.30
31979;DHT22;18502;43.574;1.276;2023-02-01T19:00:20;5.10;81.30
31979;DHT22;18502;43.574;1.276;2023-02-01T19:02:47;4.90;81.60
31979;DHT22;18502;43.574;1.276;2023-02-01T19:05:14;4.80;81.80
31979;DHT22;18502;43.574;1.276;2023-02-01T19:07:40;4.70;82.40
31979;DHT22;18502;43.574;1.276;2023-02-01T19:10:10;4.70;82.50
31979;DHT22;18502;43.574;1.276;2023-02-01T19:12:36;4.70;82.40
31979;DHT22;18502;43.574;1.276;2023-02-01T19:15:04;4.70;82.30
31979;DHT22;18502;43.574;1.276;2023-02-01T19:17:30;4.80;82.00
31979;DHT22;18502;43.574;1.276;2023-02-01T19:19:56;4.50;82.60
31979;DHT22;18502;43.574;1.276;2023-02-01T19:22:25;4.40;83.10
31979;DHT22;18502;43.574;1.276;2023-02-01T19:24:51;4.10;83.80
31979;DHT22;18502;43.574;1.276;2023-02-01T19:27:16;3.90;84.90
31979;DHT22;18502;43.574;1.276;2023-02-01T19:29:42;3.90;85.20
31979;DHT22;18502;43.574;1.276;2023-02-01T19:32:11;3.90;85.20
31979;DHT22;18502;43.574;1.276;2023-02-01T19:34:37;4.20;84.90
31979;DHT22;18502;43.574;1.276;2023-02-01T19:37:04;4.30;84.30
31979;DHT22;18502;43.574;1.276;2023-02-01T19:39:30;4.40;84.20
31979;DHT22;18502;43.574;1.276;2023-02-01T19:41:56;4.30;84.40
31979;DHT22;18502;43.574;1.276;2023-02-01T19:44:25;4.30;84.60
31979;DHT22;18502;43.574;1.276;2023-02-01T19:46:54;4.30;84.70
31979;DHT22;18502;43.574;1.276;2023-02-01T19:49:20;4.30;84.80
31979;DHT22;18502;43.574;1.276;2023-02-01T19:51:46;4.20;84.90
31979;DHT22;18502;43.574;1.276;2023-02-01T19:54:13;4.20;85.10
31979;DHT22;18502;43.574;1.276;2023-02-01T19:56:40;4.20;85.20
31979;DHT22;18502;43.574;1.276;2023-02-01T19:59:06;4.10;85.30
31979;DHT22;18502;43.574;1.276;2023-02-01T20:01:33;4.20;85.10
31979;DHT22;18502;43.574;1.276;2023-02-01T20:03:59;4.10;85.00
31979;DHT22;18502;43.574;1.276;2023-02-01T20:06:31;4.10;85.10
31979;DHT22;18502;43.574;1.276;2023-02-01T20:08:57;4.10;85.20
31979;DHT22;18502;43.574;1.276;2023-02-01T20:11:23;4.20;85.80
31979;DHT22;18502;43.574;1.276;2023-02-01T20:13:53;4.20;85.00
31979;DHT22;18502;43.574;1.276;2023-02-01T20:16:19;4.20;84.90
31979;DHT22;18502;43.574;1.276;2023-02-01T20:18:45;4.20;85.00
31979;DHT22;18502;43.574;1.276;2023-02-01T20:21:11;4.10;85.30
31979;DHT22;18502;43.574;1.276;2023-02-01T20:23:37;4.20;85.00
31979;DHT22;18502;43.574;1.276;2023-02-01T20:26:03;4.40;84.30
31979;DHT22;18502;43.574;1.276;2023-02-01T20:28:29;4.40;84.40
31979;DHT22;18502;43.574;1.276;2023-02-01T20:30:55;4.40;84.50
31979;DHT22;18502;43.574;1.276;2023-02-01T20:33:21;4.40;84.80
31979;DHT22;18502;43.574;1.276;2023-02-01T20:35:47;4.40;84.70
31979;DHT22;18502;43.574;1.276;2023-02-01T20:38:12;4.40;84.80
31979;DHT22;18502;43.574;1.276;2023-02-01T20:40:39;4.30;85.20
31979;DHT22;18502;43.574;1.276;2023-02-01T20:43:04;4.20;85.30
31979;DHT22;18502;43.574;1.276;2023-02-01T20:45:30;4.20;85.40
31979;DHT22;18502;43.574;1.276;2023-02-01T20:47:56;4.20;85.20
31979;DHT22;18502;43.574;1.276;2023-02-01T20:50:21;4.20;85.20
31979;DHT22;18502;43.574;1.276;2023-02-01T20:52:47;4.10;85.30
31979;DHT22;18502;43.574;1.276;2023-02-01T20:55:12;4.10;85.20
31979;DHT22;18502;43.574;1.276;2023-02-01T20:57:38;4.00;85.70
31979;DHT22;18502;43.574;1.276;2023-02-01T21:00:04;4.00;85.80
31979;DHT22;18502;43.574;1.276;2023-02-01T21:02:34;4.00;86.00
31979;DHT22;18502;43.574;1.276;2023-02-01T21:05:00;4.00;85.90
31979;DHT22;18502;43.574;1.276;2023-02-01T21:07:25;4.00;85.80
31979;DHT22;18502;43.574;1.276;2023-02-01T21:09:51;4.00;85.90
31979;DHT22;18502;43.574;1.276;2023-02-01T21:12:16;3.90;86.00
31979;DHT22;18502;43.574;1.276;2023-02-01T21:14:42;4.00;86.00
31979;DHT22;18502;43.574;1.276;2023-02-01T21:17:08;4.00;85.90
31979;DHT22;18502;43.574;1.276;2023-02-01T21:19:33;4.00;86.10
31979;DHT22;18502;43.574;1.276;2023-02-01T21:22:07;4.00;85.90
31979;DHT22;18502;43.574;1.276;2023-02-01T21:24:33;4.10;85.70
